createdAt,value
2022-08-19T00:02:49.975Z,22.70
2022-08-19T00:08:19.462Z,22.65
2022-08-19T00:13:40.322Z,22.61
2022-08-19T00:19:31.967Z,22.62
2022-08-19T00:25:02.308Z,22.62
2022-08-19T00:30:25.661Z,22.61
2022-08-19T00:35:58.411Z,22.58
2022-08-19T00:41:34.201Z,22.56
2022-08-19T00:46:57.937Z,22.53
2022-08-19T00:52:34.769Z,22.50
2022-08-19T00:58:17.420Z,22.46
2022-08-19T01:03:56.843Z,22.41
2022-08-19T01:09:20.686Z,22.35
2022-08-19T01:14:58.084Z,22.32
2022-08-19T01:20:28.184Z,22.29
2022-08-19T01:26:33.955Z,22.25
2022-08-19T01:32:32.078Z,22.19
2022-08-19T01:38:01.418Z,22.15
2022-08-19T01:43:37.201Z,22.11
2022-08-19T01:49:11.196Z,22.06
2022-08-19T01:54:42.481Z,22.00
2022-08-19T01:59:56.096Z,21.99
2022-08-19T02:05:15.755Z,21.97
2022-08-19T02:10:43.553Z,21.92
2022-08-19T02:16:15.881Z,21.85
2022-08-19T02:21:46.797Z,21.79
2022-08-19T02:27:39.617Z,21.75
2022-08-19T02:33:10.409Z,21.70
2022-08-19T02:38:39.987Z,21.68
2022-08-19T02:44:22.299Z,21.71
2022-08-19T02:49:21.734Z,21.76
2022-08-19T02:54:31.709Z,21.82
2022-08-19T02:59:52.451Z,21.80
2022-08-19T03:05:01.165Z,21.76
2022-08-19T03:10:29.220Z,21.74
2022-08-19T03:15:37.306Z,21.80
2022-08-19T03:20:57.325Z,21.80
2022-08-19T03:26:19.909Z,21.74
2022-08-19T03:31:43.843Z,21.72
2022-08-19T03:36:53.301Z,21.71
2022-08-19T03:42:33.202Z,21.74
2022-08-19T03:47:50.759Z,21.73
2022-08-19T03:53:02.775Z,21.74
2022-08-19T03:58:12.262Z,21.76
2022-08-19T04:03:22.873Z,21.75
2022-08-19T04:08:30.495Z,21.72
2022-08-19T04:13:40.535Z,21.71
2022-08-19T04:19:09.483Z,21.75
2022-08-19T04:24:17.514Z,21.80
2022-08-19T04:29:28.786Z,21.85
2022-08-19T04:34:36.430Z,21.88
2022-08-19T04:40:24.101Z,22.05
2022-08-19T04:45:39.609Z,22.26
2022-08-19T04:50:58.938Z,22.47
2022-08-19T04:56:11.101Z,22.74
2022-08-19T05:01:24.443Z,22.95
2022-08-19T05:06:34.246Z,23.06
2022-08-19T05:11:49.899Z,23.15
2022-08-19T05:17:26.658Z,23.23
2022-08-19T05:22:44.805Z,23.50
2022-08-19T05:28:12.639Z,23.85
2022-08-19T05:33:20.924Z,24.12
2022-08-19T05:38:31.753Z,24.41
2022-08-19T05:43:40.610Z,24.49
2022-08-19T05:49:07.242Z,24.61
2022-08-19T05:54:29.331Z,24.77
2022-08-19T06:00:00.397Z,25.03
2022-08-19T06:05:19.085Z,25.22
2022-08-19T06:10:40.274Z,25.49
2022-08-19T06:15:49.046Z,25.86
2022-08-19T06:21:04.728Z,26.26
2022-08-19T06:26:15.462Z,26.46
2022-08-19T06:31:33.434Z,26.50
2022-08-19T06:36:46.493Z,26.63
2022-08-19T06:41:58.991Z,26.71
2022-08-19T06:47:23.802Z,26.56
2022-08-19T06:52:41.291Z,26.43
2022-08-19T06:57:49.424Z,26.64
2022-08-19T07:03:01.003Z,27.01
2022-08-19T07:08:12.163Z,27.51
2022-08-19T07:13:20.726Z,27.98
2022-08-19T07:18:29.074Z,28.32
2022-08-19T07:28:46.078Z,29.28
2022-08-19T07:33:59.794Z,29.61
2022-08-19T07:39:12.176Z,29.61
2022-08-19T07:44:19.909Z,29.59
2022-08-19T07:49:28.880Z,29.75
2022-08-19T07:54:40.290Z,29.94
2022-08-19T07:59:50.160Z,30.02
2022-08-19T08:05:15.328Z,30.39
2022-08-19T08:10:27.447Z,30.70
2022-08-19T08:15:42.678Z,30.81
2022-08-19T08:20:51.085Z,30.86
2022-08-19T08:26:00.330Z,30.95
2022-08-19T08:31:13.977Z,31.05
2022-08-19T08:36:25.775Z,31.06
2022-08-19T08:41:39.510Z,31.18
2022-08-19T08:46:52.906Z,31.34
2022-08-19T08:52:17.984Z,31.30
2022-08-19T08:57:33.729Z,31.16
2022-08-19T09:02:50.755Z,30.89
2022-08-19T09:08:07.170Z,30.58
2022-08-19T09:13:23.383Z,30.38
2022-08-19T09:18:45.748Z,30.38
2022-08-19T09:23:54.393Z,30.40
2022-08-19T09:29:06.520Z,30.43
2022-08-19T09:34:21.029Z,30.49
2022-08-19T09:39:36.119Z,30.54
2022-08-19T09:44:44.689Z,30.66
2022-08-19T09:49:54.609Z,30.61
2022-08-19T09:55:12.768Z,30.59
2022-08-19T10:00:22.240Z,30.65
2022-08-19T10:05:55.122Z,30.80
2022-08-19T10:11:27.322Z,30.97
2022-08-19T10:16:32.959Z,31.13
2022-08-19T10:21:48.209Z,31.22
2022-08-19T10:26:59.917Z,31.35
2022-08-19T10:32:10.299Z,31.41
2022-08-19T10:37:23.883Z,31.49
2022-08-19T10:42:38.490Z,31.52
2022-08-19T10:47:49.040Z,31.43
2022-08-19T10:52:57.836Z,31.35
2022-08-19T10:58:05.657Z,31.28
2022-08-19T11:03:13.835Z,31.26
2022-08-19T11:08:23.835Z,31.33
2022-08-19T11:13:33.550Z,31.48
2022-08-19T11:18:48.961Z,31.61
2022-08-19T11:24:02.949Z,31.64
2022-08-19T11:29:14.587Z,31.75
2022-08-19T11:34:26.837Z,31.89
2022-08-19T11:39:51.837Z,31.99
2022-08-19T11:45:02.110Z,32.08
2022-08-19T11:50:24.829Z,32.12
2022-08-19T11:55:44.241Z,32.17
2022-08-19T12:00:52.840Z,32.27
2022-08-19T12:06:15.996Z,32.36
2022-08-19T12:11:31.320Z,32.40
2022-08-19T12:17:03.594Z,32.51
2022-08-19T12:22:14.272Z,32.59
2022-08-19T12:27:40.100Z,32.68
2022-08-19T12:32:49.281Z,32.63
2022-08-19T12:37:59.630Z,32.64
2022-08-19T12:43:07.663Z,32.74
2022-08-19T12:48:33.690Z,32.79
2022-08-19T12:53:43.347Z,32.77
2022-08-19T12:58:52.952Z,32.83
2022-08-19T13:04:04.964Z,32.82
2022-08-19T13:09:17.851Z,32.77
2022-08-19T13:14:28.566Z,32.74
2022-08-19T13:19:38.305Z,32.77
2022-08-19T13:24:47.615Z,32.75
2022-08-19T13:30:25.691Z,32.80
2022-08-19T13:35:48.891Z,32.85
2022-08-19T13:41:03.248Z,32.90
2022-08-19T13:46:16.279Z,32.96
2022-08-19T13:51:24.424Z,33.01
2022-08-19T13:56:32.091Z,33.09
2022-08-19T14:01:42.760Z,33.14
2022-08-19T14:06:54.475Z,33.21
2022-08-19T14:12:02.059Z,33.22
2022-08-19T14:17:11.902Z,33.16
2022-08-19T14:22:22.381Z,33.18
2022-08-19T14:27:30.635Z,33.19
2022-08-19T14:32:44.938Z,33.15
2022-08-19T14:37:57.228Z,33.19
2022-08-19T14:43:08.862Z,33.20
2022-08-19T14:48:19.275Z,33.30
2022-08-19T14:53:28.239Z,33.39
2022-08-19T14:58:39.064Z,33.50
2022-08-19T15:03:49.425Z,33.59
2022-08-19T15:09:02.052Z,33.62
2022-08-19T15:14:12.785Z,33.57
2022-08-19T15:19:21.171Z,33.50
2022-08-19T15:24:29.189Z,33.41
2022-08-19T15:29:40.417Z,33.36
2022-08-19T15:34:51.195Z,33.34
2022-08-19T15:40:00.279Z,33.27
2022-08-19T15:45:11.647Z,33.15
2022-08-19T15:50:25.299Z,33.01
2022-08-19T15:55:39.898Z,32.90
2022-08-19T16:01:05.164Z,32.80
2022-08-19T16:06:27.276Z,32.71
2022-08-19T16:11:40.046Z,32.64
2022-08-19T16:16:57.050Z,32.63
2022-08-19T16:22:06.063Z,32.63
2022-08-19T16:27:14.212Z,32.63
2022-08-19T16:32:25.609Z,32.61
2022-08-19T16:37:36.334Z,32.59
2022-08-19T16:42:44.276Z,32.58
2022-08-19T16:48:07.876Z,32.55
2022-08-19T16:53:31.977Z,32.52
2022-08-19T16:59:03.183Z,32.45
2022-08-19T17:04:14.334Z,32.35
2022-08-19T17:09:25.992Z,32.21
2022-08-19T17:14:35.200Z,32.08
2022-08-19T17:19:44.754Z,31.96
2022-08-19T17:25:03.069Z,31.85
2022-08-19T17:30:14.558Z,31.72
2022-08-19T17:35:45.973Z,31.60
2022-08-19T17:41:05.840Z,31.49
2022-08-19T17:46:19.547Z,31.38
2022-08-19T17:51:47.844Z,31.24
2022-08-19T17:57:16.021Z,31.07
2022-08-19T18:02:33.364Z,30.91
2022-08-19T18:07:44.888Z,30.72
2022-08-19T18:12:58.513Z,30.53
2022-08-19T18:18:14.914Z,30.31
2022-08-19T18:23:44.952Z,30.09
2022-08-19T18:28:52.638Z,29.91
2022-08-19T18:34:01.010Z,29.77
2022-08-19T18:39:26.159Z,29.65
2022-08-19T18:45:00.051Z,29.51
2022-08-19T18:50:16.211Z,29.26
2022-08-19T18:55:27.195Z,28.97
2022-08-19T19:00:37.191Z,28.81
2022-08-19T19:05:48.932Z,28.70
2022-08-19T19:10:56.538Z,28.64
2022-08-19T19:16:04.413Z,28.56
2022-08-19T19:21:13.351Z,28.48
2022-08-19T19:26:46.873Z,28.33
2022-08-19T19:31:59.857Z,28.17
2022-08-19T19:37:08.647Z,28.01
2022-08-19T19:42:24.516Z,27.85
2022-08-19T19:47:35.515Z,27.73
2022-08-19T19:52:50.059Z,27.65
2022-08-19T19:58:03.387Z,27.58
2022-08-19T20:03:22.071Z,27.51
2022-08-19T20:09:17.534Z,27.43
2022-08-19T20:14:38.757Z,27.37
2022-08-19T20:20:00.995Z,27.30
2022-08-19T20:25:11.843Z,27.20
2022-08-19T20:30:46.334Z,27.13
2022-08-19T20:35:56.899Z,27.09
2022-08-19T20:41:24.973Z,27.05
2022-08-19T20:46:40.325Z,27.00
2022-08-19T20:52:00.833Z,26.91
2022-08-19T20:57:23.675Z,26.83
2022-08-19T21:02:52.798Z,26.75
2022-08-19T21:08:14.720Z,26.60
2022-08-19T21:13:37.131Z,26.53
2022-08-19T21:18:49.912Z,26.46
2022-08-19T21:24:00.421Z,26.37
2022-08-19T21:29:38.019Z,26.29
2022-08-19T21:35:11.746Z,26.10
2022-08-19T21:40:31.665Z,25.98
2022-08-19T21:45:59.024Z,25.89
2022-08-19T21:51:26.496Z,25.77
2022-08-19T21:56:38.808Z,25.72
2022-08-19T22:02:29.985Z,25.68
2022-08-19T22:07:43.095Z,25.67
2022-08-19T22:13:06.688Z,25.56
2022-08-19T22:18:19.279Z,25.42
2022-08-19T22:23:38.675Z,25.38
2022-08-19T22:28:55.876Z,25.33
2022-08-19T22:34:30.120Z,25.28
2022-08-19T22:39:38.999Z,25.20
2022-08-19T22:45:00.401Z,25.13
2022-08-19T22:50:13.638Z,25.05
2022-08-19T22:55:24.905Z,25.01
2022-08-19T23:00:32.989Z,24.96
2022-08-19T23:05:52.578Z,24.85
2022-08-19T23:11:06.516Z,24.72
2022-08-19T23:16:17.684Z,24.66
2022-08-19T23:21:28.657Z,24.68
2022-08-19T23:27:00.508Z,24.73
2022-08-19T23:32:12.263Z,24.72
2022-08-19T23:37:28.276Z,24.53
2022-08-19T23:42:43.367Z,24.34
2022-08-19T23:47:56.107Z,24.23
2022-08-19T23:53:25.263Z,24.19
2022-08-19T23:58:36.985Z,24.23
